Corvallis, MT (59828)

5:42 PM MDT on March 22, 2017 (GMT -0600)
Corvallis - West Edge of Town | | Change Station

Elev 3470 ft 46.31 °N, 114.12 °W | Updated 24 seconds ago

Partly Cloudy
Partly Cloudy
61.9 °F
Feels Like 61.9 °F
N
4.0
Wind Variable Wind from NNW

Today
High -- | Low -- °F
--% Chance of Precip.
Yesterday
High -- | Low -- °F
Precip. -- in
Pressure 29.83 in
Visibility 10.0 miles
Clouds Mostly Cloudy 7000 ft
Mostly Cloudy 9500 ft
Dew Point 29 °F
Humidity 29%
Rainfall 0.03 in
Snow Depth Not available.
7:34 AM 7:52 PM
Waning Crescent, 28% visible
METAR KMSO 222253Z 36003KT 10SM BKN070 BKN095 14/02 A2981 RMK AO2 SLP100 T01390017
Pressure 29.83 in
Visibility 10.0 miles
Clouds Mostly Cloudy 7000 ft
Mostly Cloudy 9500 ft
Dew Point 29 °F
Humidity 29%
Rainfall 0.03 in
Snow Depth Not available.
7:34 AM 7:52 PM
Waning Crescent, 28% visible
METAR KMSO 222253Z 36003KT 10SM BKN070 BKN095 14/02 A2981 RMK AO2 SLP100 T01390017

Get Severe Weather Alerts

Thanks for signing up!

Be on the lookout for a verification email in your inbox.

You'll start receiving the daily forecast at 8 AM.

×

10-Day Weather Forecast

Almanac

Astronomy

Mar. 22, 2017 Rise Set
Actual Time
Civil Twilight
Nautical Twilight
Astronomical Twilight
Moon
Length of Visible Light
Length of Day
Tomorrow will be .
, % of the Moon is Illuminated

Today's Extremes

State Highs State Lows

Community

WunderPhotos

Upload Photos

1,962,540 photos uploaded!

WunderBlog® & News

Nearby

Air Quality

  Air Quality AQ Index Pollutant
Not available.

Snow Depth

Station Depth Elevation

Earthquake Activity

City Distance Mag. Time & Date
Minimum magnitude displayed is 2.5.

Earthquake Activity

City Distance Mag. Time & Date
Minimum magnitude displayed is 2.5.

Coastal Water Temperatures

Place Temperature

Stations

Nearby Weather Stations

Station Location Temp. Windchill Dew Point Humidity Wind Precip. Elev Updated Type
                   

Watches & Warnings

There are currently no watches in effect.